Time;durP1;ratioP1;P1;durP2;ratioP2;P2;SDS_P1;SDS_P2;PMS_P1;PMS_P2;Temp;Humidity;BMP_temperature;BMP_pressure;BME280_temperature;BME280_humidity;BME280_pressure;Samples;Min_cycle;Max_cycle;Signal;HPM_P1;HPM_P2
2021/09/18 00:01:08;;;;;;;1.50;0.88;;;12.80;98.60;;;;;;6148102;23;19986;-61
2021/09/18 00:03:34;;;;;;;;;;;12.80;98.70;;;;;;6148069;23;20005;-61
2021/09/18 00:06:00;;;;;;;2.30;1.30;;;12.80;98.70;;;;;;6147536;23;19904;-62
2021/09/18 00:08:25;;;;;;;;;;;12.70;98.80;;;;;;6147200;23;20009;-61
2021/09/18 00:10:51;;;;;;;1.88;0.98;;;12.70;98.80;;;;;;6149238;23;19916;-62
2021/09/18 00:13:16;;;;;;;;;;;12.60;98.90;;;;;;6148834;23;19997;-62
2021/09/18 00:15:42;;;;;;;1.95;0.70;;;12.60;98.90;;;;;;6147456;23;19904;-61
2021/09/18 00:18:07;;;;;;;;;;;12.60;99.10;;;;;;6148618;23;20001;-62
2021/09/18 00:20:33;;;;;;;3.80;0.90;;;12.50;99.00;;;;;;6146935;23;19905;-62
2021/09/18 00:22:59;;;;;;;0.98;0.60;;;12.50;99.10;;;;;;6145270;23;20012;-62
2021/09/18 00:25:25;;;;;;;1.95;0.77;;;12.50;99.20;;;;;;6148083;23;20002;-61
2021/09/18 00:27:50;;;;;;;;;;;12.50;99.20;;;;;;6147998;23;20032;-61
2021/09/18 00:30:16;;;;;;;1.70;0.65;;;12.50;99.30;;;;;;6148530;23;19948;-61
2021/09/18 00:32:41;;;;;;;;;;;12.50;99.30;;;;;;6149452;23;20041;-61
2021/09/18 00:35:07;;;;;;;1.55;0.70;;;12.50;99.30;;;;;;6146756;23;20114;-62
2021/09/18 00:37:33;;;;;;;;;;;12.50;99.30;;;;;;6145359;23;20013;-62
2021/09/18 00:39:58;;;;;;;2.80;1.05;;;12.50;99.30;;;;;;6145251;23;20247;-62
2021/09/18 00:42:24;;;;;;;;;;;12.40;99.40;;;;;;6149837;23;20336;-62
2021/09/18 00:44:51;;;;;;;4.72;1.00;;;12.40;99.50;;;;;;6145928;23;20540;-63
2021/09/18 00:47:17;;;;;;;2.28;1.35;;;12.40;99.50;;;;;;6149499;23;20047;-63
2021/09/18 00:49:43;;;;;;;1.45;1.00;;;12.30;99.60;;;;;;6149427;23;20006;-61
2021/09/18 00:52:08;;;;;;;;;;;12.30;99.60;;;;;;6150097;23;20505;-62
2021/09/18 00:54:34;;;;;;;2.08;1.05;;;12.30;99.70;;;;;;6147837;23;19904;-62
2021/09/18 00:57:00;;;;;;;;;;;12.30;99.70;;;;;;6147878;23;20152;-62
2021/09/18 00:59:26;;;;;;;4.30;1.52;;;12.30;99.80;;;;;;6148035;23;19962;-62
2021/09/18 01:01:51;;;;;;;;;;;12.30;99.80;;;;;;6148852;23;20001;-62
2021/09/18 01:04:17;;;;;;;2.78;1.20;;;12.30;99.90;;;;;;6147533;23;19900;-62
2021/09/18 01:06:42;;;;;;;;;;;12.20;99.90;;;;;;6147519;23;20024;-61
2021/09/18 01:09:08;;;;;;;1.45;1.08;;;12.20;99.90;;;;;;6146586;23;19904;-61
2021/09/18 01:11:34;;;;;;;;;;;12.20;99.90;;;;;;6146468;23;20016;-61
2021/09/18 01:14:00;;;;;;;1.63;1.02;;;12.20;99.90;;;;;;6146159;23;19919;-61
2021/09/18 01:16:25;;;;;;;8.02;2.47;;;12.20;99.90;;;;;;6146343;23;20021;-63
2021/09/18 01:18:51;;;;;;;;;;;12.20;99.90;;;;;;6146979;23;20076;-61
2021/09/18 01:21:18;;;;;;;3.38;2.05;;;12.20;99.90;;;;;;6146956;23;19901;-61
2021/09/18 01:23:43;;;;;;;1.83;0.88;;;12.20;99.90;;;;;;6145821;23;20093;-62
2021/09/18 01:26:09;;;;;;;;;;;12.20;99.90;;;;;;6145380;23;20417;-61
2021/09/18 01:28:38;;;;;;;2.55;0.77;;;12.20;99.90;;;;;;6145715;23;19905;-62
2021/09/18 01:31:04;;;;;;;5.35;0.50;;;12.10;99.90;;;;;;6145687;23;20008;-62
2021/09/18 01:33:30;;;;;;;;;;;12.00;99.90;;;;;;6146611;23;20321;-61
2021/09/18 01:35:55;;;;;;;1.20;0.60;;;12.00;99.90;;;;;;6143274;23;19905;-62
2021/09/18 01:38:21;;;;;;;;;;;11.90;99.90;;;;;;6147165;23;20002;-62
2021/09/18 01:40:47;;;;;;;0.95;0.40;;;11.90;99.90;;;;;;6146863;23;19908;-62
2021/09/18 01:43:13;;;;;;;4.13;0.85;;;11.90;99.90;;;;;;6145725;23;20006;-62
2021/09/18 01:45:40;;;;;;;2.97;1.20;;;11.90;99.90;;;;;;6145311;23;20441;-62
2021/09/18 01:48:09;;;;;;;1.77;0.90;;;11.80;99.90;;;;;;6146839;23;20503;-62
2021/09/18 01:50:44;;;;;;;2.25;0.70;;;11.80;99.90;;;;;;6146821;23;20278;-62
2021/09/18 01:53:10;;;;;;;2.00;1.40;;;11.90;99.90;;;;;;6144681;23;20020;-62
2021/09/18 01:55:36;;;;;;;3.42;1.15;;;11.80;99.90;;;;;;6142617;23;20002;-62
2021/09/18 01:58:03;;;;;;;2.30;1.50;;;11.80;99.90;;;;;;6146316;23;20348;-62
2021/09/18 02:00:30;;;;;;;3.17;1.17;;;11.90;99.90;;;;;;6146234;23;21704;-62
2021/09/18 02:02:56;;;;;;;3.58;1.17;;;11.90;99.90;;;;;;6145301;23;20001;-62
2021/09/18 02:05:23;;;;;;;;;;;11.90;99.90;;;;;;6146799;23;20040;-62
2021/09/18 02:07:48;;;;;;;2.13;1.20;;;11.90;99.90;;;;;;6144970;23;19910;-62
2021/09/18 02:10:15;;;;;;;;;;;11.90;99.90;;;;;;6146179;23;20080;-62
2021/09/18 02:12:41;;;;;;;2.22;1.13;;;11.80;99.90;;;;;;6145290;23;19909;-60
2021/09/18 02:15:07;;;;;;;;;;;11.80;99.90;;;;;;6145782;23;20006;-60
2021/09/18 02:17:32;;;;;;;2.58;1.52;;;11.80;99.90;;;;;;6146194;23;19912;-60
2021/09/18 02:19:58;;;;;;;;;;;11.80;99.90;;;;;;6147729;23;19998;-60
2021/09/18 02:22:23;;;;;;;2.28;0.70;;;11.80;99.90;;;;;;6146019;23;19907;-60
2021/09/18 02:24:49;;;;;;;;;;;11.80;99.90;;;;;;6144406;23;20087;-61
2021/09/18 02:27:14;;;;;;;4.03;2.30;;;11.80;99.90;;;;;;6146896;23;19901;-61
2021/09/18 02:29:40;;;;;;;;;;;11.80;99.90;;;;;;6146840;23;20013;-61
2021/09/18 02:32:05;;;;;;;2.22;0.80;;;11.90;99.90;;;;;;6147965;23;19909;-61
2021/09/18 02:34:31;;;;;;;;;;;11.90;99.90;;;;;;6145976;23;20314;-61
2021/09/18 02:36:57;;;;;;;4.72;1.77;;;11.90;99.90;;;;;;6144370;23;19901;-61
2021/09/18 02:39:23;;;;;;;;;;;11.90;99.90;;;;;;6148141;23;20001;-61
2021/09/18 02:41:48;;;;;;;3.78;1.30;;;11.90;99.90;;;;;;6144285;23;19908;-61
2021/09/18 02:44:14;;;;;;;;;;;11.90;99.90;;;;;;6146556;23;20009;-61
2021/09/18 02:46:39;;;;;;;2.67;1.30;;;12.00;99.90;;;;;;6146242;23;19932;-61
2021/09/18 02:49:05;;;;;;;;;;;11.90;99.90;;;;;;6147285;23;20017;-61
2021/09/18 02:51:30;;;;;;;3.90;1.83;;;11.90;99.90;;;;;;6146114;23;20309;-61
2021/09/18 02:53:55;;;;;;;;;;;12.00;99.90;;;;;;6148515;23;20005;-61
2021/09/18 02:56:21;;;;;;;5.03;2.42;;;12.00;99.90;;;;;;6144318;23;19904;-61
2021/09/18 02:58:47;;;;;;;;;;;12.00;99.90;;;;;;6175436;23;20067;-61
2021/09/18 03:01:13;;;;;;;3.63;1.77;;;12.00;99.90;;;;;;6174552;23;20212;-61
2021/09/18 03:03:38;;;;;;;;;;;12.00;99.90;;;;;;6175359;23;20055;-61
2021/09/18 03:06:04;;;;;;;3.30;2.20;;;12.00;99.90;;;;;;6149392;23;19900;-61
2021/09/18 03:08:29;;;;;;;;;;;12.00;99.90;;;;;;6176203;23;20423;-60
2021/09/18 03:10:54;;;;;;;5.65;3.00;;;12.00;99.90;;;;;;6177000;23;19990;-61
2021/09/18 03:13:20;;;;;;;;;;;12.00;99.90;;;;;;6174809;23;20052;-61
2021/09/18 03:15:45;;;;;;;5.65;2.70;;;12.00;99.90;;;;;;6174762;23;19904;-61
2021/09/18 03:18:11;;;;;;;;;;;12.00;99.90;;;;;;6177209;23;20016;-61
2021/09/18 03:20:36;;;;;;;8.48;3.75;;;12.10;99.90;;;;;;6176662;23;19904;-61
2021/09/18 03:23:02;;;;;;;;;;;12.10;99.90;;;;;;6149022;23;20019;-61
2021/09/18 03:25:27;;;;;;;18.05;6.85;;;12.10;99.90;;;;;;6176152;23;20384;-61
2021/09/18 03:27:53;;;;;;;;;;;12.10;99.90;;;;;;6177555;23;20009;-61
2021/09/18 03:30:18;;;;;;;8.52;4.95;;;12.10;99.90;;;;;;6148889;23;19914;-61
2021/09/18 03:32:44;;;;;;;;;;;12.10;99.90;;;;;;6176680;23;20029;-61
2021/09/18 03:35:10;;;;;;;7.93;3.67;;;12.10;99.90;;;;;;6175202;23;19906;-61
2021/09/18 03:37:35;;;;;;;;;;;12.10;99.90;;;;;;6175958;23;20317;-62
2021/09/18 03:40:04;;;;;;;5.13;2.22;;;12.10;99.90;;;;;;6176581;23;19912;-61
2021/09/18 03:42:30;;;;;;;6.80;3.08;;;12.20;99.90;;;;;;6176530;23;19993;-61
2021/09/18 03:44:55;;;;;;;;;;;12.10;99.90;;;;;;6176312;23;20064;-61
2021/09/18 03:47:21;;;;;;;4.47;2.15;;;12.10;99.90;;;;;;6173717;23;19931;-61
2021/09/18 03:49:46;;;;;;;;;;;12.10;99.90;;;;;;6175682;23;20008;-61
2021/09/18 03:52:12;;;;;;;3.63;1.60;;;12.20;99.90;;;;;;6175432;23;19904;-61
2021/09/18 03:54:37;;;;;;;;;;;12.20;99.90;;;;;;6176506;23;20001;-61
2021/09/18 03:57:03;;;;;;;5.45;1.83;;;12.10;99.90;;;;;;6169062;23;19908;-57
2021/09/18 03:59:28;;;;;;;;;;;12.10;99.90;;;;;;6144742;23;20037;-57
2021/09/18 04:01:54;;;;;;;3.65;1.55;;;12.10;99.90;;;;;;6141796;23;20320;-57
2021/09/18 04:04:19;;;;;;;;;;;12.10;99.90;;;;;;6145192;23;20076;-58
2021/09/18 04:06:47;;;;;;;4.82;2.08;;;12.10;99.90;;;;;;6145055;23;20354;-58
2021/09/18 04:09:12;;;;;;;3.38;2.22;;;12.00;99.90;;;;;;6145921;23;20012;-58
2021/09/18 04:11:38;;;;;;;;;;;12.10;99.90;;;;;;6145304;23;20017;-58
2021/09/18 04:14:03;;;;;;;4.13;1.42;;;12.10;99.90;;;;;;6145064;23;19911;-57
2021/09/18 04:16:28;;;;;;;;;;;12.10;99.90;;;;;;6145313;23;20052;-58
2021/09/18 04:18:54;;;;;;;3.38;2.63;;;12.10;99.90;;;;;;6145470;23;20303;-58
2021/09/18 04:21:19;;;;;;;;;;;12.10;99.90;;;;;;6145919;23;20006;-58
2021/09/18 04:23:45;;;;;;;6.60;1.58;;;12.20;99.90;;;;;;6146230;23;19908;-59
2021/09/18 04:26:11;;;;;;;;;;;12.10;99.90;;;;;;6145112;23;20013;-58
2021/09/18 04:28:37;;;;;;;5.82;3.05;;;12.20;99.90;;;;;;6146004;23;19964;-58
2021/09/18 04:31:02;;;;;;;;;;;12.10;99.90;;;;;;6144799;23;20040;-58
2021/09/18 04:33:28;;;;;;;3.78;2.83;;;12.20;99.90;;;;;;6144503;23;20026;-58
2021/09/18 04:35:53;;;;;;;;;;;12.20;99.90;;;;;;6143422;23;20426;-58
2021/09/18 04:38:19;;;;;;;17.05;2.22;;;12.20;99.90;;;;;;6145081;23;20418;-58
2021/09/18 04:40:44;;;;;;;;;;;12.20;99.90;;;;;;6145824;23;20010;-58
2021/09/18 04:43:10;;;;;;;3.50;2.25;;;12.20;99.90;;;;;;6145868;23;20371;-58
2021/09/18 04:45:35;;;;;;;;;;;12.20;99.90;;;;;;6147445;23;20016;-58
2021/09/18 04:48:01;;;;;;;9.55;2.55;;;12.20;99.90;;;;;;6147026;23;19971;-58
2021/09/18 04:50:26;;;;;;;;;;;12.20;99.90;;;;;;6148075;23;20081;-59
2021/09/18 04:52:52;;;;;;;2.25;1.60;;;12.20;99.90;;;;;;6145416;23;19907;-58
2021/09/18 04:55:17;;;;;;;;;;;12.20;99.90;;;;;;6148255;23;20425;-58
2021/09/18 04:57:43;;;;;;;8.30;2.70;;;12.20;99.90;;;;;;6146791;23;20322;-59
2021/09/18 05:00:09;;;;;;;;;;;12.20;99.90;;;;;;6149440;23;20006;-58
2021/09/18 05:02:34;;;;;;;3.50;1.55;;;12.20;99.90;;;;;;6148287;23;19952;-59
2021/09/18 05:05:00;;;;;;;;;;;12.20;99.90;;;;;;6148776;23;20384;-59
2021/09/18 05:07:25;;;;;;;2.35;1.85;;;12.10;99.90;;;;;;6147595;23;19904;-59
2021/09/18 05:09:51;;;;;;;;;;;12.10;99.90;;;;;;6148052;23;20013;-59
2021/09/18 05:12:16;;;;;;;4.38;2.97;;;12.10;99.90;;;;;;6144789;23;19983;-59
2021/09/18 05:14:41;;;;;;;;;;;12.10;99.90;;;;;;6146903;23;20012;-58
2021/09/18 05:17:07;;;;;;;3.63;2.92;;;12.40;99.90;;;;;;6148313;23;20006;-59
2021/09/18 05:19:32;;;;;;;;;;;12.70;99.90;;;;;;6145291;23;20404;-59
2021/09/18 05:21:58;;;;;;;4.13;1.98;;;13.00;99.90;;;;;;6143214;23;19935;-59
2021/09/18 05:24:25;;;;;;;;;;;13.20;99.90;;;;;;6140308;23;20005;-59
2021/09/18 05:26:51;;;;;;;11.52;1.67;;;13.40;99.90;;;;;;6142118;23;20024;-59
2021/09/18 05:29:16;;;;;;;5.60;3.33;;;13.60;99.90;;;;;;6147300;23;20005;-58
2021/09/18 05:31:42;;;;;;;;;;;13.70;99.90;;;;;;6148166;23;20002;-59
2021/09/18 05:34:09;;;;;;;3.47;2.25;;;13.80;99.90;;;;;;6147239;23;19931;-59
2021/09/18 05:36:35;;;;;;;6.75;3.22;;;13.90;99.80;;;;;;6146072;23;20317;-60
2021/09/18 05:39:00;;;;;;;;;;;13.90;99.60;;;;;;6146856;23;20009;-59
2021/09/18 05:41:26;;;;;;;5.68;2.05;;;13.80;99.20;;;;;;6142822;23;19924;-59
2021/09/18 05:43:51;;;;;;;;;;;13.60;98.90;;;;;;6146645;23;19998;-57
2021/09/18 05:46:17;;;;;;;3.72;2.50;;;13.40;99.00;;;;;;6143654;23;19987;-59
2021/09/18 05:48:42;;;;;;;;;;;13.30;99.20;;;;;;6147764;23;20006;-57
2021/09/18 05:51:08;;;;;;;4.82;2.03;;;13.10;99.40;;;;;;6146898;23;20338;-58
2021/09/18 05:53:33;;;;;;;;;;;13.00;99.40;;;;;;6147128;23;20433;-59
2021/09/18 05:55:58;;;;;;;3.65;2.03;;;12.90;99.60;;;;;;6145467;23;19987;-59
2021/09/18 05:58:24;;;;;;;;;;;12.90;99.70;;;;;;6146079;23;20009;-58
2021/09/18 06:00:50;;;;;;;5.25;1.60;;;12.90;99.80;;;;;;6143036;23;19901;-58
2021/09/18 06:03:15;;;;;;;;;;;12.90;99.80;;;;;;6146357;23;20546;-58
2021/09/18 06:05:40;;;;;;;3.47;1.55;;;12.80;99.90;;;;;;6142832;23;19904;-57
2021/09/18 06:08:06;;;;;;;;;;;12.80;99.90;;;;;;6147249;23;20013;-58
2021/09/18 06:10:31;;;;;;;2.38;1.35;;;12.80;99.90;;;;;;6144690;23;19932;-58
2021/09/18 06:12:57;;;;;;;;;;;12.80;99.90;;;;;;6146542;23;20009;-57
2021/09/18 06:15:22;;;;;;;4.25;1.85;;;12.70;99.90;;;;;;6145007;23;20334;-58
2021/09/18 06:17:48;;;;;;;;;;;12.70;99.90;;;;;;6146727;23;20001;-59
2021/09/18 06:20:13;;;;;;;4.10;1.80;;;12.60;99.90;;;;;;6139103;23;19904;-59
2021/09/18 06:22:39;;;;;;;;;;;12.60;99.90;;;;;;6140475;23;20049;-58
2021/09/18 06:25:09;;;;;;;4.43;1.23;;;12.60;99.90;;;;;;6145982;23;20102;-58
2021/09/18 06:27:35;;;;;;;2.45;1.55;;;12.60;99.90;;;;;;6146182;23;20080;-59
2021/09/18 06:30:00;;;;;;;;;;;12.60;99.90;;;;;;6145896;23;20586;-58
2021/09/18 06:32:26;;;;;;;9.63;2.30;;;12.60;99.90;;;;;;6144781;23;19901;-59
2021/09/18 06:34:52;;;;;;;2.45;1.85;;;12.60;99.90;;;;;;6145936;23;20029;-58
2021/09/18 06:37:17;;;;;;;;;;;12.60;99.90;;;;;;6144069;23;20001;-58
2021/09/18 06:39:43;;;;;;;5.20;2.85;;;12.60;99.90;;;;;;6144463;23;19908;-60
2021/09/18 06:42:08;;;;;;;;;;;12.60;99.90;;;;;;6145513;23;20052;-60
2021/09/18 06:44:37;;;;;;;4.82;3.25;;;12.60;99.90;;;;;;6144314;23;19943;-59
2021/09/18 06:47:03;;;;;;;5.00;2.75;;;12.70;99.90;;;;;;6142521;23;20182;-59
2021/09/18 06:49:28;;;;;;;;;;;12.70;99.90;;;;;;6142590;23;20013;-57
2021/09/18 06:51:54;;;;;;;6.97;3.60;;;12.70;99.90;;;;;;6144419;23;19908;-59
2021/09/18 06:54:19;;;;;;;;;;;12.70;99.90;;;;;;6146327;23;20013;-59
2021/09/18 06:56:45;;;;;;;3.78;2.28;;;12.80;99.90;;;;;;6144347;23;19924;-60
2021/09/18 06:59:10;;;;;;;;;;;12.80;99.90;;;;;;6144800;23;20001;-59
2021/09/18 07:01:36;;;;;;;2.90;2.60;;;12.70;99.90;;;;;;6142237;23;19905;-59
2021/09/18 07:04:01;;;;;;;;;;;12.70;99.90;;;;;;6142284;23;20436;-59
2021/09/18 07:06:27;;;;;;;5.43;2.72;;;12.70;99.90;;;;;;6141625;23;19927;-58
2021/09/18 07:08:53;;;;;;;;;;;12.70;99.90;;;;;;6142343;23;20021;-58
2021/09/18 07:11:19;;;;;;;6.85;4.05;;;12.70;99.90;;;;;;6142262;23;20244;-57
2021/09/18 07:13:45;;;;;;;5.70;3.10;;;12.70;99.90;;;;;;6142387;23;20108;-59
2021/09/18 07:16:10;;;;;;;;;;;12.70;99.90;;;;;;6144372;23;20077;-58
2021/09/18 07:18:36;;;;;;;4.63;3.70;;;12.70;99.90;;;;;;6142853;23;19904;-60
2021/09/18 07:21:02;;;;;;;;;;;12.80;99.90;;;;;;6144594;23;20010;-57
2021/09/18 07:23:27;;;;;;;8.25;4.90;;;12.80;99.90;;;;;;6142244;23;19904;-58
2021/09/18 07:25:53;;;;;;;;;;;12.80;99.90;;;;;;6144878;23;20006;-58
2021/09/18 07:28:18;;;;;;;6.30;4.57;;;12.80;99.90;;;;;;6144142;23;19911;-57
2021/09/18 07:30:44;;;;;;;;;;;12.90;99.90;;;;;;6142981;23;20015;-57
2021/09/18 07:33:09;;;;;;;7.03;5.00;;;13.00;99.90;;;;;;6144926;23;19943;-56
2021/09/18 07:35:36;;;;;;;;;;;13.00;99.90;;;;;;6140794;23;20046;-58
2021/09/18 07:38:05;;;;;;;9.02;5.00;;;13.20;99.90;;;;;;6144423;23;20294;-59
2021/09/18 07:40:32;;;;;;;7.43;3.75;;;13.20;99.90;;;;;;6144155;23;20433;-58
2021/09/18 07:42:58;;;;;;;5.78;3.85;;;13.30;99.90;;;;;;6145135;23;20328;-58
2021/09/18 07:45:24;;;;;;;6.95;4.60;;;13.40;99.90;;;;;;6142579;23;20340;-59
2021/09/18 07:47:50;;;;;;;;;;;13.30;99.90;;;;;;6141137;23;20064;-60
2021/09/18 07:50:15;;;;;;;10.10;4.50;;;13.30;99.90;;;;;;6142197;23;19908;-60
2021/09/18 07:52:41;;;;;;;;;;;13.30;99.90;;;;;;6144035;23;20319;-59
2021/09/18 07:55:10;;;;;;;6.25;3.58;;;13.40;99.90;;;;;;6143050;23;19904;-60
2021/09/18 07:57:36;;;;;;;7.53;4.85;;;13.40;99.90;;;;;;6144747;23;20017;-59
2021/09/18 08:00:07;;;;;;;5.50;3.72;;;13.50;99.90;;;;;;6143742;23;20005;-60
2021/09/18 08:02:33;;;;;;;8.27;4.35;;;13.50;99.90;;;;;;6143891;23;20028;-59
2021/09/18 08:04:58;;;;;;;;;;;13.60;99.90;;;;;;6144750;23;20336;-60
2021/09/18 08:07:24;;;;;;;6.90;3.90;;;13.60;99.90;;;;;;6145114;23;20316;-59
2021/09/18 08:09:49;;;;;;;;;;;13.60;99.90;;;;;;6144295;23;20614;-57
2021/09/18 08:12:16;;;;;;;5.90;4.25;;;13.60;99.90;;;;;;6143941;23;19916;-60
2021/09/18 08:14:42;;;;;;;15.45;5.40;;;13.60;99.90;;;;;;6142697;23;20009;-59
2021/09/18 08:17:08;;;;;;;;;;;13.70;99.90;;;;;;6142396;23;20096;-59
2021/09/18 08:19:33;;;;;;;4.25;3.53;;;13.70;99.90;;;;;;6142671;23;19905;-59
2021/09/18 08:21:59;;;;;;;6.20;4.95;;;13.70;99.90;;;;;;6142500;23;20249;-58
2021/09/18 08:24:24;;;;;;;;;;;13.70;99.90;;;;;;6142526;23;20005;-60
2021/09/18 08:26:50;;;;;;;6.80;4.28;;;13.80;99.90;;;;;;6144129;23;19900;-59
2021/09/18 08:29:16;;;;;;;;;;;13.70;99.90;;;;;;6144020;23;20044;-60
2021/09/18 08:31:41;;;;;;;5.07;4.55;;;13.80;99.90;;;;;;6144102;23;19943;-59
2021/09/18 08:34:07;;;;;;;;;;;13.80;99.90;;;;;;6144566;23;20002;-60
2021/09/18 08:36:32;;;;;;;18.15;5.40;;;13.80;99.90;;;;;;6143499;23;19905;-59
2021/09/18 08:38:58;;;;;;;;;;;13.80;99.90;;;;;;6145110;23;20424;-58
2021/09/18 08:41:25;;;;;;;6.88;4.75;;;13.90;99.90;;;;;;6144182;23;20395;-60
2021/09/18 08:43:50;;;;;;;7.85;5.20;;;14.00;99.90;;;;;;6147835;23;20009;-59
2021/09/18 08:46:17;;;;;;;;;;;14.00;99.90;;;;;;6146878;23;20005;-60
2021/09/18 08:48:44;;;;;;;7.95;5.07;;;14.00;99.90;;;;;;6140282;23;19900;-59
2021/09/18 08:51:10;;;;;;;10.88;5.20;;;14.00;99.90;;;;;;6146758;23;20156;-60
2021/09/18 08:53:36;;;;;;;;;;;14.00;99.90;;;;;;6146532;23;20129;-60
2021/09/18 08:56:02;;;;;;;8.77;5.22;;;14.10;99.90;;;;;;6146927;23;20316;-61
2021/09/18 08:58:28;;;;;;;8.90;5.65;;;14.00;99.90;;;;;;6146478;23;20010;-60
2021/09/18 09:00:55;;;;;;;;;;;14.00;99.90;;;;;;6146245;23;20482;-60
2021/09/18 09:03:29;;;;;;;11.80;7.05;;;14.10;99.90;;;;;;6147965;23;19911;-58
2021/09/18 09:06:15;;;;;;;8.52;5.75;;;14.10;99.90;;;;;;6147211;23;20006;-60
2021/09/18 09:08:55;;;;;;;7.57;5.90;;;14.00;99.90;;;;;;6147591;23;20390;-60
2021/09/18 09:11:23;;;;;;;6.68;5.28;;;14.00;99.90;;;;;;6146149;23;20684;-61
2021/09/18 09:13:57;;;;;;;6.38;4.63;;;14.00;99.90;;;;;;6148189;23;20009;-60
2021/09/18 09:16:24;;;;;;;9.98;6.22;;;14.10;99.90;;;;;;6147094;23;20002;-59
2021/09/18 09:18:49;;;;;;;9.25;6.40;;;14.30;99.90;;;;;;6147480;23;20043;-60
2021/09/18 09:21:16;;;;;;;;;;;14.50;99.90;;;;;;6148060;23;20006;-58
2021/09/18 09:23:43;;;;;;;6.75;4.72;;;14.60;99.90;;;;;;6147026;23;19905;-60
2021/09/18 09:26:09;;;;;;;7.70;5.95;;;14.60;99.90;;;;;;6146578;23;20001;-61
2021/09/18 09:28:37;;;;;;;9.05;6.78;;;14.70;99.90;;;;;;6147373;23;20073;-60
2021/09/18 09:31:10;;;;;;;6.85;5.72;;;14.70;99.90;;;;;;6146824;23;20341;-60
2021/09/18 09:33:35;;;;;;;8.43;5.32;;;14.80;99.90;;;;;;6145969;23;20001;-60
2021/09/18 09:36:15;;;;;;;;;;;14.90;99.90;;;;;;6146992;23;20055;-59
2021/09/18 09:38:50;;;;;;;9.38;6.90;;;15.00;99.90;;;;;;6145983;23;20332;-60
2021/09/18 09:41:48;;;;;;;7.32;5.78;;;15.10;99.90;;;;;;6145793;23;20025;-59
2021/09/18 09:44:17;;;;;;;;;;;15.10;99.90;;;;;;6146689;23;20006;-60
2021/09/18 09:46:57;;;;;;;9.02;6.32;;;15.10;99.90;;;;;;6145940;23;19951;-60
2021/09/18 09:49:23;;;;;;;6.15;5.05;;;15.10;99.90;;;;;;6146161;23;20005;-60
2021/09/18 09:51:48;;;;;;;;;;;15.10;99.90;;;;;;6146429;23;20029;-59
2021/09/18 09:54:18;;;;;;;9.55;5.93;;;15.10;99.90;;;;;;6146787;23;19987;-58
2021/09/18 09:56:43;;;;;;;9.55;6.30;;;15.20;99.90;;;;;;6145932;23;20333;-59
2021/09/18 09:59:09;;;;;;;;;;;15.30;99.90;;;;;;6146371;23;20013;-60
2021/09/18 10:01:34;;;;;;;9.18;5.60;;;15.40;99.90;;;;;;6146332;23;19904;-59
2021/09/18 10:04:01;;;;;;;;;;;15.50;99.90;;;;;;6145628;23;20005;-59
2021/09/18 10:06:27;;;;;;;4.82;4.30;;;15.60;99.90;;;;;;6146321;23;20395;-60
2021/09/18 10:08:56;;;;;;;7.05;5.45;;;15.70;99.90;;;;;;6146154;23;20049;-60
2021/09/18 10:11:21;;;;;;;6.68;5.95;;;15.80;99.80;;;;;;6145876;23;20010;-60
2021/09/18 10:13:47;;;;;;;6.25;5.32;;;15.80;99.50;;;;;;6146112;23;20001;-60
2021/09/18 10:16:15;;;;;;;4.55;4.00;;;15.80;99.30;;;;;;6145456;23;20060;-60
2021/09/18 10:18:42;;;;;;;4.82;4.22;;;15.80;99.30;;;;;;6145960;23;20002;-59
2021/09/18 10:23:52;;;;;;;6.28;5.13;;;15.80;99.40;;;;;;6145025;23;20032;-58
2021/09/18 10:26:18;;;;;;;5.93;4.57;;;15.80;99.40;;;;;;6145858;23;20005;-61
2021/09/18 10:28:44;;;;;;;;;;;15.80;99.20;;;;;;6146814;23;20009;-59
2021/09/18 10:31:16;;;;;;;6.30;3.13;;;15.70;99.10;;;;;;6146052;23;19928;-61
2021/09/18 10:33:45;;;;;;;4.20;3.58;;;15.70;99.10;;;;;;6145825;23;20006;-59
2021/09/18 10:36:12;;;;;;;4.32;3.58;;;15.80;99.20;;;;;;6145842;23;20057;-59
2021/09/18 10:38:43;;;;;;;8.05;4.70;;;15.80;99.10;;;;;;6145437;23;20036;-59
2021/09/18 10:41:11;;;;;;;4.97;3.17;;;15.80;99.00;;;;;;6146116;23;20001;-60
2021/09/18 10:43:39;;;;;;;6.82;3.53;;;15.80;99.10;;;;;;6143585;23;20394;-61
2021/09/18 10:46:12;;;;;;;4.18;3.78;;;15.90;99.10;;;;;;6145838;23;20333;-58
2021/09/18 10:48:45;;;;;;;4.47;3.83;;;15.90;98.90;;;;;;6145716;23;20041;-59
2021/09/18 10:51:32;;;;;;;4.93;3.75;;;15.90;98.90;;;;;;6145512;23;20009;-59
2021/09/18 10:54:15;;;;;;;6.88;4.03;;;15.80;98.90;;;;;;6146031;23;20060;-60
2021/09/18 10:57:00;;;;;;;4.85;3.80;;;15.80;98.70;;;;;;6145118;23;20105;-59
2021/09/18 10:59:46;;;;;;;3.83;2.85;;;15.80;98.90;;;;;;6144256;23;20002;-60
2021/09/18 11:02:30;;;;;;;4.78;3.40;;;15.90;99.00;;;;;;6145174;23;20079;-60
2021/09/18 11:05:07;;;;;;;6.13;3.55;;;15.90;98.90;;;;;;6145651;23;20317;-60
2021/09/18 11:07:39;;;;;;;3.95;3.25;;;15.90;98.80;;;;;;6144789;23;20020;-58
2021/09/18 11:10:09;;;;;;;6.28;2.95;;;15.90;98.60;;;;;;6146308;23;20012;-60
2021/09/18 11:12:35;;;;;;;5.68;3.83;;;15.90;98.70;;;;;;6144912;23;20016;-60
2021/09/18 11:15:06;;;;;;;4.25;3.75;;;15.90;98.80;;;;;;6144949;23;20504;-58
2021/09/18 11:17:33;;;;;;;4.88;3.70;;;15.90;98.80;;;;;;6144892;23;20017;-60
2021/09/18 11:20:15;;;;;;;5.50;3.42;;;16.00;98.80;;;;;;6130893;23;20006;-58
2021/09/18 11:22:41;;;;;;;4.10;2.80;;;16.10;98.50;;;;;;6142975;23;20006;-60
2021/09/18 11:25:30;;;;;;;3.67;3.22;;;16.20;98.70;;;;;;6142812;23;20404;-59
2021/09/18 11:28:02;;;;;;;3.67;2.75;;;16.30;98.80;;;;;;6143391;23;20002;-60
2021/09/18 11:30:52;;;;;;;6.57;3.38;;;16.40;98.20;;;;;;6143427;23;20013;-60
2021/09/18 11:33:24;;;;;;;4.50;2.83;;;16.30;98.10;;;;;;6144231;23;19998;-61
2021/09/18 11:36:08;;;;;;;5.90;3.72;;;16.30;98.30;;;;;;6141812;23;20367;-60
2021/09/18 11:38:34;;;;;;;4.10;3.25;;;16.50;98.30;;;;;;6143039;23;20013;-60
2021/09/18 11:41:15;;;;;;;8.00;3.28;;;16.50;98.10;;;;;;6144112;23;20076;-60
2021/09/18 11:43:42;;;;;;;4.10;2.95;;;16.50;98.20;;;;;;6143899;23;20064;-60
2021/09/18 11:46:09;;;;;;;4.93;2.83;;;16.60;98.20;;;;;;6145214;23;20456;-60
2021/09/18 11:48:35;;;;;;;6.95;3.53;;;16.70;98.00;;;;;;6145620;23;20396;-57
2021/09/18 11:51:05;;;;;;;6.20;2.97;;;16.70;98.10;;;;;;6145805;23;20242;-60
2021/09/18 11:53:31;;;;;;;4.05;2.63;;;16.80;97.90;;;;;;6145774;23;20006;-59
2021/09/18 11:55:57;;;;;;;3.85;3.17;;;16.80;97.90;;;;;;6146535;23;19997;-58
2021/09/18 11:58:29;;;;;;;3.85;2.78;;;16.90;97.80;;;;;;6146548;23;20013;-59
2021/09/18 12:01:04;;;;;;;2.55;2.35;;;17.00;97.50;;;;;;6144659;23;20005;-59
2021/09/18 12:03:34;;;;;;;3.65;2.70;;;16.90;97.30;;;;;;6146081;23;20017;-59
2021/09/18 12:06:06;;;;;;;2.95;2.40;;;16.90;97.50;;;;;;6145683;23;20033;-58
2021/09/18 12:08:34;;;;;;;3.17;2.40;;;17.00;97.50;;;;;;6142418;23;20087;-58
2021/09/18 12:11:09;;;;;;;3.88;3.05;;;17.10;97.60;;;;;;6143163;23;20005;-60
2021/09/18 12:13:41;;;;;;;3.40;2.30;;;17.20;97.50;;;;;;6145240;23;20005;-59
2021/09/18 12:16:07;;;;;;;5.22;2.72;;;17.40;97.40;;;;;;6146676;23;20477;-58
2021/09/18 12:18:36;;;;;;;4.20;2.22;;;17.40;97.00;;;;;;6144610;23;20005;-59
2021/09/18 12:21:05;;;;;;;6.28;2.28;;;17.40;97.00;;;;;;6147157;23;20001;-60
2021/09/18 12:23:33;;;;;;;3.50;2.78;;;17.40;96.70;;;;;;6146761;23;20002;-60
2021/09/18 12:26:01;;;;;;;4.43;3.03;;;17.40;96.70;;;;;;6147666;23;20006;-59
2021/09/18 12:28:29;;;;;;;3.75;2.30;;;17.30;96.40;;;;;;6144812;23;20044;-57
2021/09/18 12:30:55;;;;;;;2.72;1.98;;;17.30;96.60;;;;;;6146868;23;20100;-59
2021/09/18 12:33:33;;;;;;;2.47;1.92;;;17.30;96.70;;;;;;6146406;23;20111;-59
2021/09/18 12:36:18;;;;;;;2.67;2.30;;;17.40;96.80;;;;;;6146231;23;20072;-60
2021/09/18 12:38:46;;;;;;;2.55;2.30;;;17.50;96.30;;;;;;6147106;23;20405;-60
2021/09/18 12:41:15;;;;;;;5.38;2.95;;;17.50;96.30;;;;;;6145497;23;20067;-59
2021/09/18 12:44:06;;;;;;;4.85;2.42;;;17.50;96.30;;;;;;6144454;23;20645;-60
2021/09/18 12:46:43;;;;;;;3.10;2.13;;;17.50;96.40;;;;;;6145387;23;20002;-59
2021/09/18 12:49:10;;;;;;;4.28;2.92;;;17.50;96.30;;;;;;6146902;23;20005;-59
2021/09/18 12:51:38;;;;;;;4.75;2.85;;;17.60;96.30;;;;;;6145067;23;20005;-58
2021/09/18 12:54:05;;;;;;;2.88;2.28;;;17.60;96.30;;;;;;6145386;23;19998;-60
2021/09/18 12:56:34;;;;;;;5.00;2.47;;;17.70;96.40;;;;;;6142185;23;20459;-60
2021/09/18 12:59:05;;;;;;;4.82;3.00;;;17.80;96.40;;;;;;6145202;23;20089;-60
2021/09/18 13:01:35;;;;;;;2.60;1.95;;;17.90;96.10;;;;;;6142224;23;20036;-61
2021/09/18 13:04:05;;;;;;;2.33;1.98;;;18.00;95.90;;;;;;6144427;23;20378;-60
2021/09/18 13:06:31;;;;;;;2.25;2.05;;;18.00;95.70;;;;;;6145048;23;20575;-60
2021/09/18 13:08:59;;;;;;;3.67;2.25;;;18.10;95.50;;;;;;6146560;23;20040;-60
2021/09/18 13:11:28;;;;;;;2.47;1.83;;;18.10;95.40;;;;;;6144120;23;20488;-60
2021/09/18 13:13:55;;;;;;;2.05;1.60;;;18.10;95.40;;;;;;6145564;23;20025;-60
2021/09/18 13:16:22;;;;;;;2.47;1.90;;;18.10;95.40;;;;;;6145871;23;20112;-60